NCAR-RAP Real-Time Weather Data

Output produced by METARs form (14 October 2019  23:34 UTC)
found at http://weather.rap.ucar.edu/surface/
 
KOMA 142252Z 16011KT 10SM SCT250 21/08 A2981 RMK AO2 SLP095 T02060078
KOMA 142152Z 16012KT 10SM SCT250 21/08 A2982 RMK AO2 SLP097 T02110078
KOMA 142052Z 16015KT 10SM SCT250 21/06 A2984 RMK AO2 SLP104 T02110061 56039
KOMA 141952Z 16014KT 10SM SCT250 20/05 A2986 RMK AO2 SLP112 T02000050
KOMA 141852Z 16013KT 10SM SCT250 18/04 A2991 RMK AO2 SLP129 T01780039
KOMA 141752Z 16012KT 10SM SCT250 16/03 A2996 RMK AO2 SLP146 T01560028 10156 20017 58023
KOMA 141652Z 16012KT 10SM SCT250 13/02 A2999 RMK AO2 SLP158 T01280022
KOMA 141552Z 15013KT 10SM SCT250 09/02 A3002 RMK AO2 SLP168 T00940022
KOMA 141452Z 15011KT 10SM SCT250 07/02 A3003 RMK AO2 SLP172 T00720017 58003
KOMA 141352Z 14007KT 10SM SCT250 04/01 A3004 RMK AO2 SLP177 T00440011
KOMA 141252Z 15007KT 10SM FEW250 02/M01 A3003 RMK AO2 SLP175 T00171006
KOMA 141152Z 14003KT 10SM CLR 02/M01 A3004 RMK AO2 SLP177 T00221006 10056 20017 55001
KOMA 141052Z 14004KT 10SM CLR 02/M01 A3004 RMK AO2 SLP174 T00221006
KOMA 140952Z 11003KT 10SM CLR 03/01 A3003 RMK AO2 SLP172 T00330006
KOMA 140852Z 00000KT 10SM CLR 02/01 A3004 RMK AO2 SLP175 T00220011 50003
KOMA 140752Z 00000KT 10SM CLR 04/01 A3004 RMK AO2 SLP176 T00390006
KOMA 140652Z 10005KT 10SM CLR 05/00 A3003 RMK AO2 SLP172 T00500000
KOMA 140552Z 00000KT 10SM CLR 04/02 A3003 RMK AO2 SLP173 T00440017 10111 20044 401610006 51011
KOMA 140452Z 00000KT 10SM CLR 05/01 A3002 RMK AO2 SLP170 T00500011
KOMA 140352Z 36003KT 10SM CLR 06/03 A3001 RMK AO2 SLP167 T00610033
KOMA 140252Z 32004KT 10SM CLR 06/03 A3000 RMK AO2 SLP163 T00560028 51020
KOMA 140152Z 32003KT 10SM CLR 08/04 A2998 RMK AO2 SLP158 T00830039
KOMA 140052Z 35005KT 10SM CLR 09/04 A2997 RMK AO2 SLP153 T00890044
KOMA 132352Z 32005KT 10SM CLR 09/02 A2994 RMK AO2 SLP143 T00940022 10161 20094 53010
KOMA 132252Z 31007KT 10SM FEW060 14/01 A2992 RMK AO2 SLP136 T01440011
KOMA 132152Z 30009KT 10SM FEW060 16/01 A2991 RMK AO2 SLP131 T01560006
KOMA 132052Z 31011KT 10SM FEW060 FEW100 16/01 A2991 RMK AO2 SLP131 T01560006 56012
KOMA 131952Z 29012KT 10SM FEW060 FEW100 14/M01 A2991 RMK AO2 SLP132 T01441011
KOMA 131852Z 27016G23KT 10SM FEW050 FEW100 13/M02 A2993 RMK AO2 SLP139 T01331017
KOMA 131752Z 29012G21KT 10SM FEW050 FEW100 12/M02 A2995 RMK AO2 SLP143 T01221017 10122 20011 58002
KOMA 131652Z 30010KT 10SM FEW050 FEW100 11/M02 A2995 RMK AO2 SLP147 T01061022
KOMA 131552Z 27008KT 10SM FEW100 09/M01 A2996 RMK AO2 SLP149 T00891011
KOMA 131452Z 29009KT 10SM FEW100 06/M02 A2995 RMK AO2 SLP146 T00611017 51010
KOMA 131352Z 31005KT 10SM FEW120 04/M02 A2995 RMK AO2 SLP145 T00391017
KOMA 131252Z 00000KT 10SM FEW100 02/M04 A2993 RMK AO2 SLP139 T00221039
KOMA 131152Z 00000KT 10SM FEW200 02/M04 A2992 RMK AO2 SLP135 T00171039 10033 20006 53005
KOMA 131052Z 00000KT 10SM CLR 02/M03 A2991 RMK AO2 SLP130 T00221033
KOMA 130952Z VRB03KT 10SM CLR 02/M03 A2990 RMK AO2 SLP128 T00221028
KOMA 130852Z 15005KT 10SM CLR 01/M01 A2990 RMK AO2 SLP129 T00061011 51005
KOMA 130752Z 13003KT 10SM CLR 02/M01 A2990 RMK AO2 SLP129 T00221011
KOMA 130652Z 20004KT 10SM CLR 03/M01 A2990 RMK AO2 SLP128 T00281006
KOMA 130552Z 00000KT 10SM CLR 03/M02 A2989 RMK AO2 SLP125 T00281017 10117 20028 401501006 51004
KOMA 130452Z 01007KT 10SM CLR 04/01 A2989 RMK AO2 SLP124 T00390011
KOMA 130352Z 35010KT 10SM CLR 06/M01 A2989 RMK AO2 SLP125 T00561011
KOMA 130252Z 29007KT 10SM CLR 08/M04 A2988 RMK AO2 SLP120 T00831044 51012
KOMA 130152Z 29007KT 10SM CLR 09/M04 A2986 RMK AO2 SLP118 T00891044
KOMA 130052Z 27008KT 10SM CLR 10/M04 A2985 RMK AO2 SLP114 T01001044
KOMA 122352Z 27007KT 10SM FEW150 FEW200 12/M06 A2984 RMK AO2 SLP109 T01221056 10150 20117 56001